sensor_id;sensor_type;location;lat;lon;timestamp;P1;durP1;ratioP1;P2;durP2;ratioP2
72791;SDS011;60907;53.268;8.764;2022-12-24T00:01:49;18.90;;;6.73;;
72791;SDS011;60907;53.268;8.764;2022-12-24T00:04:14;22.23;;;7.25;;
72791;SDS011;60907;53.268;8.764;2022-12-24T00:06:39;19.63;;;8.03;;
72791;SDS011;60907;53.268;8.764;2022-12-24T00:09:05;20.10;;;7.00;;
72791;SDS011;60907;53.268;8.764;2022-12-24T00:11:30;19.63;;;7.53;;
72791;SDS011;60907;53.268;8.764;2022-12-24T00:13:56;17.75;;;7.28;;
72791;SDS011;60907;53.268;8.764;2022-12-24T00:16:21;20.30;;;6.75;;
72791;SDS011;60907;53.268;8.764;2022-12-24T00:18:47;16.85;;;6.85;;
72791;SDS011;60907;53.268;8.764;2022-12-24T00:21:13;16.35;;;7.25;;
72791;SDS011;60907;53.268;8.764;2022-12-24T00:23:39;18.10;;;7.38;;
72791;SDS011;60907;53.268;8.764;2022-12-24T00:26:04;16.58;;;6.57;;
72791;SDS011;60907;53.268;8.764;2022-12-24T00:28:30;17.93;;;6.10;;
72791;SDS011;60907;53.268;8.764;2022-12-24T00:30:55;16.20;;;6.40;;
72791;SDS011;60907;53.268;8.764;2022-12-24T00:33:20;20.23;;;7.32;;
72791;SDS011;60907;53.268;8.764;2022-12-24T00:35:48;21.75;;;6.32;;
72791;SDS011;60907;53.268;8.764;2022-12-24T00:38:14;19.92;;;6.65;;
72791;SDS011;60907;53.268;8.764;2022-12-24T00:40:39;13.97;;;5.63;;
72791;SDS011;60907;53.268;8.764;2022-12-24T00:43:05;17.92;;;6.60;;
72791;SDS011;60907;53.268;8.764;2022-12-24T00:45:30;17.90;;;6.63;;
72791;SDS011;60907;53.268;8.764;2022-12-24T00:47:56;19.35;;;6.40;;
72791;SDS011;60907;53.268;8.764;2022-12-24T00:50:21;18.33;;;6.60;;
72791;SDS011;60907;53.268;8.764;2022-12-24T00:52:47;13.65;;;5.78;;
72791;SDS011;60907;53.268;8.764;2022-12-24T00:55:12;18.73;;;7.07;;
72791;SDS011;60907;53.268;8.764;2022-12-24T00:57:38;16.60;;;6.17;;
72791;SDS011;60907;53.268;8.764;2022-12-24T01:00:03;19.33;;;6.20;;
72791;SDS011;60907;53.268;8.764;2022-12-24T01:02:29;19.38;;;6.38;;
72791;SDS011;60907;53.268;8.764;2022-12-24T01:04:55;18.75;;;5.93;;
72791;SDS011;60907;53.268;8.764;2022-12-24T01:07:36;16.05;;;5.68;;
72791;SDS011;60907;53.268;8.764;2022-12-24T01:12:28;17.65;;;6.22;;
72791;SDS011;60907;53.268;8.764;2022-12-24T01:14:54;17.00;;;6.32;;
72791;SDS011;60907;53.268;8.764;2022-12-24T01:17:19;18.30;;;5.93;;
72791;SDS011;60907;53.268;8.764;2022-12-24T01:19:44;18.40;;;6.45;;
72791;SDS011;60907;53.268;8.764;2022-12-24T01:22:10;18.80;;;6.03;;
72791;SDS011;60907;53.268;8.764;2022-12-24T01:24:35;16.38;;;5.85;;
72791;SDS011;60907;53.268;8.764;2022-12-24T01:27:01;16.45;;;6.57;;
72791;SDS011;60907;53.268;8.764;2022-12-24T01:29:26;14.23;;;6.10;;
72791;SDS011;60907;53.268;8.764;2022-12-24T01:31:51;12.85;;;5.93;;
72791;SDS011;60907;53.268;8.764;2022-12-24T01:34:17;16.27;;;6.32;;
72791;SDS011;60907;53.268;8.764;2022-12-24T01:36:42;13.45;;;5.55;;
72791;SDS011;60907;53.268;8.764;2022-12-24T01:39:08;16.98;;;5.93;;
72791;SDS011;60907;53.268;8.764;2022-12-24T01:41:33;15.15;;;5.05;;
72791;SDS011;60907;53.268;8.764;2022-12-24T01:46:54;15.98;;;5.65;;
72791;SDS011;60907;53.268;8.764;2022-12-24T01:49:26;18.38;;;5.85;;
72791;SDS011;60907;53.268;8.764;2022-12-24T01:51:53;17.30;;;5.47;;
72791;SDS011;60907;53.268;8.764;2022-12-24T01:54:25;17.27;;;6.30;;
72791;SDS011;60907;53.268;8.764;2022-12-24T01:56:56;11.10;;;5.13;;
72791;SDS011;60907;53.268;8.764;2022-12-24T01:59:23;15.45;;;5.50;;
72791;SDS011;60907;53.268;8.764;2022-12-24T02:01:49;13.30;;;5.07;;
72791;SDS011;60907;53.268;8.764;2022-12-24T02:06:52;15.10;;;5.45;;
72791;SDS011;60907;53.268;8.764;2022-12-24T02:09:18;15.32;;;4.82;;
72791;SDS011;60907;53.268;8.764;2022-12-24T02:11:44;12.35;;;5.13;;
72791;SDS011;60907;53.268;8.764;2022-12-24T02:14:10;13.70;;;5.50;;
72791;SDS011;60907;53.268;8.764;2022-12-24T02:19:09;10.00;;;4.43;;
72791;SDS011;60907;53.268;8.764;2022-12-24T02:22:03;15.77;;;4.93;;
72791;SDS011;60907;53.268;8.764;2022-12-24T02:32:25;12.02;;;4.88;;
72791;SDS011;60907;53.268;8.764;2022-12-24T02:35:20;10.38;;;4.07;;
72791;SDS011;60907;53.268;8.764;2022-12-24T02:37:51;10.75;;;4.13;;
72791;SDS011;60907;53.268;8.764;2022-12-24T02:43:00;11.15;;;4.38;;
72791;SDS011;60907;53.268;8.764;2022-12-24T02:45:28;11.48;;;4.43;;
72791;SDS011;60907;53.268;8.764;2022-12-24T02:47:56;10.18;;;4.10;;
72791;SDS011;60907;53.268;8.764;2022-12-24T02:50:22;11.23;;;4.70;;
72791;SDS011;60907;53.268;8.764;2022-12-24T02:52:47;10.55;;;4.15;;
72791;SDS011;60907;53.268;8.764;2022-12-24T02:55:15;11.18;;;3.90;;
72791;SDS011;60907;53.268;8.764;2022-12-24T03:00:22;9.63;;;4.03;;
72791;SDS011;60907;53.268;8.764;2022-12-24T03:10:26;7.55;;;3.38;;
72791;SDS011;60907;53.268;8.764;2022-12-24T03:13:11;9.95;;;4.13;;
72791;SDS011;60907;53.268;8.764;2022-12-24T03:15:39;9.70;;;3.63;;
72791;SDS011;60907;53.268;8.764;2022-12-24T03:18:05;8.68;;;3.65;;
72791;SDS011;60907;53.268;8.764;2022-12-24T03:20:34;9.98;;;4.25;;
72791;SDS011;60907;53.268;8.764;2022-12-24T03:23:01;8.18;;;3.45;;
72791;SDS011;60907;53.268;8.764;2022-12-24T03:25:27;8.95;;;3.15;;
72791;SDS011;60907;53.268;8.764;2022-12-24T03:27:53;11.35;;;3.78;;
72791;SDS011;60907;53.268;8.764;2022-12-24T03:32:46;6.33;;;3.27;;
72791;SDS011;60907;53.268;8.764;2022-12-24T03:35:11;8.80;;;3.08;;
72791;SDS011;60907;53.268;8.764;2022-12-24T03:37:37;8.07;;;3.20;;
72791;SDS011;60907;53.268;8.764;2022-12-24T03:40:03;8.50;;;3.65;;
72791;SDS011;60907;53.268;8.764;2022-12-24T03:42:29;9.05;;;3.90;;
72791;SDS011;60907;53.268;8.764;2022-12-24T03:44:55;8.15;;;3.65;;
72791;SDS011;60907;53.268;8.764;2022-12-24T03:47:20;8.07;;;3.60;;
72791;SDS011;60907;53.268;8.764;2022-12-24T03:49:45;7.37;;;3.77;;
72791;SDS011;60907;53.268;8.764;2022-12-24T03:52:11;9.20;;;3.47;;
72791;SDS011;60907;53.268;8.764;2022-12-24T03:54:36;7.50;;;3.10;;
72791;SDS011;60907;53.268;8.764;2022-12-24T03:57:01;7.90;;;3.28;;
72791;SDS011;60907;53.268;8.764;2022-12-24T03:59:27;8.05;;;3.60;;
72791;SDS011;60907;53.268;8.764;2022-12-24T04:01:52;8.27;;;3.30;;
72791;SDS011;60907;53.268;8.764;2022-12-24T04:04:18;11.90;;;4.33;;
72791;SDS011;60907;53.268;8.764;2022-12-24T04:06:43;7.83;;;3.40;;
72791;SDS011;60907;53.268;8.764;2022-12-24T04:09:08;7.83;;;4.00;;
72791;SDS011;60907;53.268;8.764;2022-12-24T04:11:34;7.17;;;3.43;;
72791;SDS011;60907;53.268;8.764;2022-12-24T04:13:59;8.37;;;3.77;;
72791;SDS011;60907;53.268;8.764;2022-12-24T04:16:25;7.60;;;3.17;;
72791;SDS011;60907;53.268;8.764;2022-12-24T04:18:50;8.95;;;3.92;;
72791;SDS011;60907;53.268;8.764;2022-12-24T04:21:16;8.30;;;3.22;;
72791;SDS011;60907;53.268;8.764;2022-12-24T04:23:41;8.45;;;4.15;;
72791;SDS011;60907;53.268;8.764;2022-12-24T04:26:08;5.93;;;2.92;;
72791;SDS011;60907;53.268;8.764;2022-12-24T04:31:01;7.28;;;3.05;;
72791;SDS011;60907;53.268;8.764;2022-12-24T04:33:28;6.57;;;2.88;;
72791;SDS011;60907;53.268;8.764;2022-12-24T04:35:53;7.05;;;3.50;;
72791;SDS011;60907;53.268;8.764;2022-12-24T04:38:19;6.63;;;3.03;;
72791;SDS011;60907;53.268;8.764;2022-12-24T04:40:44;6.53;;;3.13;;
72791;SDS011;60907;53.268;8.764;2022-12-24T04:43:10;7.35;;;3.00;;
72791;SDS011;60907;53.268;8.764;2022-12-24T04:45:35;6.63;;;3.10;;
72791;SDS011;60907;53.268;8.764;2022-12-24T04:48:00;8.10;;;3.73;;
72791;SDS011;60907;53.268;8.764;2022-12-24T04:50:26;8.07;;;3.30;;
72791;SDS011;60907;53.268;8.764;2022-12-24T04:52:51;8.68;;;3.20;;
72791;SDS011;60907;53.268;8.764;2022-12-24T04:55:16;8.27;;;3.70;;
72791;SDS011;60907;53.268;8.764;2022-12-24T04:57:42;8.77;;;3.05;;
72791;SDS011;60907;53.268;8.764;2022-12-24T05:00:08;7.75;;;3.67;;
72791;SDS011;60907;53.268;8.764;2022-12-24T05:02:34;8.23;;;3.78;;
72791;SDS011;60907;53.268;8.764;2022-12-24T05:04:59;7.73;;;3.10;;
72791;SDS011;60907;53.268;8.764;2022-12-24T05:07:25;6.18;;;3.05;;
72791;SDS011;60907;53.268;8.764;2022-12-24T05:09:50;8.07;;;3.35;;
72791;SDS011;60907;53.268;8.764;2022-12-24T05:12:15;7.88;;;2.65;;
72791;SDS011;60907;53.268;8.764;2022-12-24T05:14:41;8.10;;;3.40;;
72791;SDS011;60907;53.268;8.764;2022-12-24T05:17:06;5.77;;;2.77;;
72791;SDS011;60907;53.268;8.764;2022-12-24T05:19:32;8.23;;;3.60;;
72791;SDS011;60907;53.268;8.764;2022-12-24T05:21:57;8.00;;;2.97;;
72791;SDS011;60907;53.268;8.764;2022-12-24T05:24:41;9.18;;;3.25;;
72791;SDS011;60907;53.268;8.764;2022-12-24T05:27:38;7.82;;;3.33;;
72791;SDS011;60907;53.268;8.764;2022-12-24T05:30:04;7.97;;;3.00;;
72791;SDS011;60907;53.268;8.764;2022-12-24T05:32:30;8.80;;;3.90;;
72791;SDS011;60907;53.268;8.764;2022-12-24T05:34:55;7.23;;;3.30;;
72791;SDS011;60907;53.268;8.764;2022-12-24T05:37:21;9.17;;;3.47;;
72791;SDS011;60907;53.268;8.764;2022-12-24T05:39:46;8.23;;;3.30;;
72791;SDS011;60907;53.268;8.764;2022-12-24T05:42:11;8.97;;;4.03;;
72791;SDS011;60907;53.268;8.764;2022-12-24T05:44:37;8.93;;;3.53;;
72791;SDS011;60907;53.268;8.764;2022-12-24T05:47:02;9.17;;;4.00;;
72791;SDS011;60907;53.268;8.764;2022-12-24T05:49:28;9.85;;;3.65;;
72791;SDS011;60907;53.268;8.764;2022-12-24T05:51:54;9.93;;;3.63;;
72791;SDS011;60907;53.268;8.764;2022-12-24T05:54:20;9.50;;;3.85;;
72791;SDS011;60907;53.268;8.764;2022-12-24T05:56:45;8.83;;;3.77;;
72791;SDS011;60907;53.268;8.764;2022-12-24T05:59:10;8.45;;;3.95;;
72791;SDS011;60907;53.268;8.764;2022-12-24T06:01:36;8.60;;;3.90;;
72791;SDS011;60907;53.268;8.764;2022-12-24T06:04:01;8.40;;;3.97;;
72791;SDS011;60907;53.268;8.764;2022-12-24T06:06:27;13.32;;;4.72;;
72791;SDS011;60907;53.268;8.764;2022-12-24T06:08:53;11.43;;;4.18;;
72791;SDS011;60907;53.268;8.764;2022-12-24T06:11:22;10.40;;;4.63;;
72791;SDS011;60907;53.268;8.764;2022-12-24T06:13:48;12.20;;;4.45;;
72791;SDS011;60907;53.268;8.764;2022-12-24T06:16:15;20.17;;;6.72;;
72791;SDS011;60907;53.268;8.764;2022-12-24T06:18:42;16.58;;;6.40;;
72791;SDS011;60907;53.268;8.764;2022-12-24T06:21:08;25.73;;;8.38;;
72791;SDS011;60907;53.268;8.764;2022-12-24T06:23:34;27.27;;;8.57;;
72791;SDS011;60907;53.268;8.764;2022-12-24T06:28:30;19.25;;;6.60;;
72791;SDS011;60907;53.268;8.764;2022-12-24T06:30:57;23.65;;;7.28;;
72791;SDS011;60907;53.268;8.764;2022-12-24T06:33:22;24.38;;;8.13;;
72791;SDS011;60907;53.268;8.764;2022-12-24T06:35:48;26.02;;;8.98;;
72791;SDS011;60907;53.268;8.764;2022-12-24T06:38:14;30.10;;;9.43;;
72791;SDS011;60907;53.268;8.764;2022-12-24T06:40:40;33.97;;;10.63;;
72791;SDS011;60907;53.268;8.764;2022-12-24T06:43:07;26.27;;;10.48;;
72791;SDS011;60907;53.268;8.764;2022-12-24T06:45:33;33.90;;;10.75;;
72791;SDS011;60907;53.268;8.764;2022-12-24T06:47:58;33.90;;;10.23;;
72791;SDS011;60907;53.268;8.764;2022-12-24T06:50:24;29.00;;;9.68;;
72791;SDS011;60907;53.268;8.764;2022-12-24T06:52:49;30.08;;;10.50;;
72791;SDS011;60907;53.268;8.764;2022-12-24T06:55:15;27.40;;;9.93;;
72791;SDS011;60907;53.268;8.764;2022-12-24T06:57:40;29.55;;;10.90;;
72791;SDS011;60907;53.268;8.764;2022-12-24T07:00:06;39.03;;;11.48;;
72791;SDS011;60907;53.268;8.764;2022-12-24T07:02:33;30.38;;;11.00;;
72791;SDS011;60907;53.268;8.764;2022-12-24T07:04:59;29.42;;;9.60;;
72791;SDS011;60907;53.268;8.764;2022-12-24T07:07:24;28.20;;;10.73;;
72791;SDS011;60907;53.268;8.764;2022-12-24T07:09:49;26.85;;;10.23;;
72791;SDS011;60907;53.268;8.764;2022-12-24T07:12:15;26.20;;;10.77;;
72791;SDS011;60907;53.268;8.764;2022-12-24T07:14:40;30.63;;;10.83;;
72791;SDS011;60907;53.268;8.764;2022-12-24T07:17:06;30.37;;;10.00;;
72791;SDS011;60907;53.268;8.764;2022-12-24T07:19:31;28.60;;;10.10;;
72791;SDS011;60907;53.268;8.764;2022-12-24T07:21:58;31.02;;;9.40;;
72791;SDS011;60907;53.268;8.764;2022-12-24T07:24:23;28.95;;;10.48;;
72791;SDS011;60907;53.268;8.764;2022-12-24T07:26:49;28.57;;;9.80;;
72791;SDS011;60907;53.268;8.764;2022-12-24T07:29:14;26.83;;;9.15;;
72791;SDS011;60907;53.268;8.764;2022-12-24T07:31:40;27.17;;;9.97;;
72791;SDS011;60907;53.268;8.764;2022-12-24T07:34:05;32.03;;;10.33;;
72791;SDS011;60907;53.268;8.764;2022-12-24T07:36:30;25.03;;;10.17;;
72791;SDS011;60907;53.268;8.764;2022-12-24T07:38:56;26.65;;;9.05;;
72791;SDS011;60907;53.268;8.764;2022-12-24T07:41:21;29.13;;;10.25;;
72791;SDS011;60907;53.268;8.764;2022-12-24T07:43:47;27.05;;;9.57;;
72791;SDS011;60907;53.268;8.764;2022-12-24T07:46:12;26.67;;;9.93;;
72791;SDS011;60907;53.268;8.764;2022-12-24T07:48:37;27.13;;;10.50;;
72791;SDS011;60907;53.268;8.764;2022-12-24T07:51:03;28.27;;;9.48;;
72791;SDS011;60907;53.268;8.764;2022-12-24T07:53:29;21.48;;;8.77;;
72791;SDS011;60907;53.268;8.764;2022-12-24T07:55:54;28.95;;;9.45;;
72791;SDS011;60907;53.268;8.764;2022-12-24T07:58:20;24.30;;;8.82;;
72791;SDS011;60907;53.268;8.764;2022-12-24T08:00:46;28.58;;;10.73;;
72791;SDS011;60907;53.268;8.764;2022-12-24T08:03:18;27.83;;;10.60;;
72791;SDS011;60907;53.268;8.764;2022-12-24T08:05:45;27.17;;;9.77;;
72791;SDS011;60907;53.268;8.764;2022-12-24T08:08:10;25.27;;;8.88;;
72791;SDS011;60907;53.268;8.764;2022-12-24T08:10:40;21.98;;;8.15;;
72791;SDS011;60907;53.268;8.764;2022-12-24T08:13:06;30.38;;;8.13;;
72791;SDS011;60907;53.268;8.764;2022-12-24T08:15:31;27.52;;;8.80;;
72791;SDS011;60907;53.268;8.764;2022-12-24T08:17:57;23.45;;;6.88;;
72791;SDS011;60907;53.268;8.764;2022-12-24T08:20:22;23.85;;;6.20;;
72791;SDS011;60907;53.268;8.764;2022-12-24T08:22:48;19.13;;;6.30;;
72791;SDS011;60907;53.268;8.764;2022-12-24T08:25:13;16.27;;;4.90;;
72791;SDS011;60907;53.268;8.764;2022-12-24T08:27:39;22.60;;;4.43;;
72791;SDS011;60907;53.268;8.764;2022-12-24T08:30:05;15.82;;;3.40;;
72791;SDS011;60907;53.268;8.764;2022-12-24T08:32:31;24.80;;;4.25;;
72791;SDS011;60907;53.268;8.764;2022-12-24T08:34:57;18.27;;;3.92;;
72791;SDS011;60907;53.268;8.764;2022-12-24T08:37:22;21.03;;;3.80;;
72791;SDS011;60907;53.268;8.764;2022-12-24T08:39:48;17.17;;;4.45;;
72791;SDS011;60907;53.268;8.764;2022-12-24T08:42:13;19.27;;;3.20;;
72791;SDS011;60907;53.268;8.764;2022-12-24T08:44:38;21.17;;;3.80;;
72791;SDS011;60907;53.268;8.764;2022-12-24T08:47:04;21.48;;;3.40;;
72791;SDS011;60907;53.268;8.764;2022-12-24T08:49:29;19.33;;;3.97;;
72791;SDS011;60907;53.268;8.764;2022-12-24T08:51:55;22.37;;;3.50;;
72791;SDS011;60907;53.268;8.764;2022-12-24T08:54:20;16.47;;;3.70;;
72791;SDS011;60907;53.268;8.764;2022-12-24T08:56:47;23.75;;;3.80;;
72791;SDS011;60907;53.268;8.764;2022-12-24T08:59:13;17.23;;;2.88;;
72791;SDS011;60907;53.268;8.764;2022-12-24T09:01:38;19.98;;;3.83;;
72791;SDS011;60907;53.268;8.764;2022-12-24T09:04:03;26.63;;;3.53;;
72791;SDS011;60907;53.268;8.764;2022-12-24T09:06:30;23.13;;;4.32;;
72791;SDS011;60907;53.268;8.764;2022-12-24T09:08:56;20.85;;;3.35;;
72791;SDS011;60907;53.268;8.764;2022-12-24T09:11:21;19.80;;;3.42;;
72791;SDS011;60907;53.268;8.764;2022-12-24T09:13:47;27.63;;;3.80;;
72791;SDS011;60907;53.268;8.764;2022-12-24T09:16:12;16.65;;;2.75;;
72791;SDS011;60907;53.268;8.764;2022-12-24T09:18:38;23.58;;;4.13;;
72791;SDS011;60907;53.268;8.764;2022-12-24T09:21:05;25.83;;;3.38;;
72791;SDS011;60907;53.268;8.764;2022-12-24T09:23:33;18.55;;;3.00;;
72791;SDS011;60907;53.268;8.764;2022-12-24T09:26:03;27.65;;;4.05;;
72791;SDS011;60907;53.268;8.764;2022-12-24T09:28:30;20.17;;;3.65;;
72791;SDS011;60907;53.268;8.764;2022-12-24T09:30:59;22.07;;;4.53;;
72791;SDS011;60907;53.268;8.764;2022-12-24T09:33:26;17.45;;;3.50;;
72791;SDS011;60907;53.268;8.764;2022-12-24T09:35:53;27.75;;;3.67;;
72791;SDS011;60907;53.268;8.764;2022-12-24T09:38:19;20.92;;;3.47;;
72791;SDS011;60907;53.268;8.764;2022-12-24T09:40:45;26.73;;;3.13;;
72791;SDS011;60907;53.268;8.764;2022-12-24T09:48:56;22.90;;;3.85;;
72791;SDS011;60907;53.268;8.764;2022-12-24T09:56:39;21.10;;;3.70;;
72791;SDS011;60907;53.268;8.764;2022-12-24T09:59:08;20.08;;;3.08;;
72791;SDS011;60907;53.268;8.764;2022-12-24T10:01:36;20.10;;;3.45;;
72791;SDS011;60907;53.268;8.764;2022-12-24T10:04:11;17.00;;;3.53;;
72791;SDS011;60907;53.268;8.764;2022-12-24T10:15:14;26.10;;;3.63;;
72791;SDS011;60907;53.268;8.764;2022-12-24T10:23:16;24.10;;;3.53;;
72791;SDS011;60907;53.268;8.764;2022-12-24T10:25:52;19.85;;;3.63;;
72791;SDS011;60907;53.268;8.764;2022-12-24T10:28:30;19.80;;;3.13;;
72791;SDS011;60907;53.268;8.764;2022-12-24T10:31:02;21.33;;;3.10;;
72791;SDS011;60907;53.268;8.764;2022-12-24T10:33:33;19.27;;;3.72;;
72791;SDS011;60907;53.268;8.764;2022-12-24T10:36:02;18.70;;;3.78;;
72791;SDS011;60907;53.268;8.764;2022-12-24T10:38:28;15.30;;;3.22;;
72791;SDS011;60907;53.268;8.764;2022-12-24T10:40:57;19.83;;;3.85;;
72791;SDS011;60907;53.268;8.764;2022-12-24T10:43:24;14.40;;;2.85;;
72791;SDS011;60907;53.268;8.764;2022-12-24T10:45:52;11.23;;;2.40;;
72791;SDS011;60907;53.268;8.764;2022-12-24T10:49:24;17.58;;;3.17;;
72791;SDS011;60907;53.268;8.764;2022-12-24T10:51:46;13.48;;;2.88;;
72791;SDS011;60907;53.268;8.764;2022-12-24T10:54:15;13.95;;;2.63;;
72791;SDS011;60907;53.268;8.764;2022-12-24T10:56:46;10.90;;;2.35;;
72791;SDS011;60907;53.268;8.764;2022-12-24T10:59:48;18.50;;;2.75;;
72791;SDS011;60907;53.268;8.764;2022-12-24T11:02:27;16.80;;;3.25;;
72791;SDS011;60907;53.268;8.764;2022-12-24T11:05:00;16.00;;;2.47;;
72791;SDS011;60907;53.268;8.764;2022-12-24T11:07:28;19.20;;;2.70;;
72791;SDS011;60907;53.268;8.764;2022-12-24T11:12:24;21.80;;;3.33;;
72791;SDS011;60907;53.268;8.764;2022-12-24T11:14:58;16.10;;;2.40;;
72791;SDS011;60907;53.268;8.764;2022-12-24T11:17:25;19.73;;;3.10;;
72791;SDS011;60907;53.268;8.764;2022-12-24T11:19:50;20.70;;;3.50;;
72791;SDS011;60907;53.268;8.764;2022-12-24T11:22:49;12.43;;;3.20;;
72791;SDS011;60907;53.268;8.764;2022-12-24T11:27:53;24.55;;;4.65;;
72791;SDS011;60907;53.268;8.764;2022-12-24T11:35:25;22.13;;;3.28;;
72791;SDS011;60907;53.268;8.764;2022-12-24T11:40:33;14.27;;;2.95;;
72791;SDS011;60907;53.268;8.764;2022-12-24T11:43:00;16.83;;;3.00;;
72791;SDS011;60907;53.268;8.764;2022-12-24T11:45:26;18.10;;;4.20;;
72791;SDS011;60907;53.268;8.764;2022-12-24T11:47:53;23.80;;;3.42;;
72791;SDS011;60907;53.268;8.764;2022-12-24T11:52:56;17.35;;;4.13;;
72791;SDS011;60907;53.268;8.764;2022-12-24T11:55:40;22.67;;;4.20;;
72791;SDS011;60907;53.268;8.764;2022-12-24T12:03:47;18.83;;;3.40;;
72791;SDS011;60907;53.268;8.764;2022-12-24T12:06:57;18.95;;;3.28;;
72791;SDS011;60907;53.268;8.764;2022-12-24T12:09:26;16.40;;;3.50;;
72791;SDS011;60907;53.268;8.764;2022-12-24T12:12:14;14.75;;;3.67;;
72791;SDS011;60907;53.268;8.764;2022-12-24T12:14:44;26.48;;;4.30;;
72791;SDS011;60907;53.268;8.764;2022-12-24T12:17:28;17.15;;;3.38;;
72791;SDS011;60907;53.268;8.764;2022-12-24T12:25:17;19.75;;;3.58;;
72791;SDS011;60907;53.268;8.764;2022-12-24T12:27:46;14.77;;;4.50;;
72791;SDS011;60907;53.268;8.764;2022-12-24T12:30:15;23.23;;;4.55;;
72791;SDS011;60907;53.268;8.764;2022-12-24T12:32:44;16.27;;;4.22;;
72791;SDS011;60907;53.268;8.764;2022-12-24T12:35:38;21.48;;;3.97;;
72791;SDS011;60907;53.268;8.764;2022-12-24T12:38:08;20.95;;;3.90;;
72791;SDS011;60907;53.268;8.764;2022-12-24T12:40:52;20.48;;;4.20;;
72791;SDS011;60907;53.268;8.764;2022-12-24T12:46:34;19.23;;;3.75;;
72791;SDS011;60907;53.268;8.764;2022-12-24T12:51:40;18.42;;;4.38;;
72791;SDS011;60907;53.268;8.764;2022-12-24T12:54:29;26.90;;;4.20;;
72791;SDS011;60907;53.268;8.764;2022-12-24T12:57:00;20.20;;;4.13;;
72791;SDS011;60907;53.268;8.764;2022-12-24T13:07:43;24.35;;;4.97;;
72791;SDS011;60907;53.268;8.764;2022-12-24T13:15:56;21.85;;;4.20;;
72791;SDS011;60907;53.268;8.764;2022-12-24T13:20:54;17.73;;;5.30;;
72791;SDS011;60907;53.268;8.764;2022-12-24T13:23:23;26.38;;;4.60;;
72791;SDS011;60907;53.268;8.764;2022-12-24T13:25:50;16.35;;;3.95;;
72791;SDS011;60907;53.268;8.764;2022-12-24T13:30:49;18.33;;;4.60;;
72791;SDS011;60907;53.268;8.764;2022-12-24T13:49:26;14.48;;;3.63;;
72791;SDS011;60907;53.268;8.764;2022-12-24T13:52:04;25.20;;;3.95;;
72791;SDS011;60907;53.268;8.764;2022-12-24T13:54:37;16.65;;;3.83;;
72791;SDS011;60907;53.268;8.764;2022-12-24T13:57:26;15.25;;;3.17;;
72791;SDS011;60907;53.268;8.764;2022-12-24T13:59:59;14.63;;;4.18;;
72791;SDS011;60907;53.268;8.764;2022-12-24T14:05:35;10.95;;;2.75;;
72791;SDS011;60907;53.268;8.764;2022-12-24T14:08:03;12.68;;;3.45;;
72791;SDS011;60907;53.268;8.764;2022-12-24T14:10:41;13.82;;;3.10;;
72791;SDS011;60907;53.268;8.764;2022-12-24T14:16:18;18.40;;;3.05;;
72791;SDS011;60907;53.268;8.764;2022-12-24T14:19:12;10.13;;;2.60;;
72791;SDS011;60907;53.268;8.764;2022-12-24T14:21:54;12.63;;;3.15;;
72791;SDS011;60907;53.268;8.764;2022-12-24T14:24:27;9.95;;;2.78;;
72791;SDS011;60907;53.268;8.764;2022-12-24T14:26:58;15.63;;;4.65;;
72791;SDS011;60907;53.268;8.764;2022-12-24T14:29:33;12.43;;;2.58;;
72791;SDS011;60907;53.268;8.764;2022-12-24T14:32:14;12.85;;;3.47;;
72791;SDS011;60907;53.268;8.764;2022-12-24T14:34:40;11.18;;;3.33;;
72791;SDS011;60907;53.268;8.764;2022-12-24T14:37:07;14.20;;;2.72;;
72791;SDS011;60907;53.268;8.764;2022-12-24T14:39:35;7.68;;;2.30;;
72791;SDS011;60907;53.268;8.764;2022-12-24T14:53:27;11.32;;;2.30;;
72791;SDS011;60907;53.268;8.764;2022-12-24T14:56:17;11.85;;;1.98;;
72791;SDS011;60907;53.268;8.764;2022-12-24T14:58:44;11.50;;;1.92;;
72791;SDS011;60907;53.268;8.764;2022-12-24T15:01:23;14.07;;;2.53;;
72791;SDS011;60907;53.268;8.764;2022-12-24T15:03:59;13.50;;;1.70;;
72791;SDS011;60907;53.268;8.764;2022-12-24T15:06:30;16.45;;;2.17;;
72791;SDS011;60907;53.268;8.764;2022-12-24T15:08:57;11.23;;;1.90;;
72791;SDS011;60907;53.268;8.764;2022-12-24T15:11:23;11.98;;;1.98;;
72791;SDS011;60907;53.268;8.764;2022-12-24T15:13:49;13.18;;;3.03;;
72791;SDS011;60907;53.268;8.764;2022-12-24T15:16:26;10.63;;;1.90;;
72791;SDS011;60907;53.268;8.764;2022-12-24T15:18:54;13.45;;;2.78;;
72791;SDS011;60907;53.268;8.764;2022-12-24T15:21:28;12.43;;;1.73;;
72791;SDS011;60907;53.268;8.764;2022-12-24T15:23:55;9.35;;;1.65;;
72791;SDS011;60907;53.268;8.764;2022-12-24T15:26:25;9.35;;;1.85;;
72791;SDS011;60907;53.268;8.764;2022-12-24T15:28:51;11.13;;;1.58;;
72791;SDS011;60907;53.268;8.764;2022-12-24T15:31:22;8.20;;;1.50;;
72791;SDS011;60907;53.268;8.764;2022-12-24T15:33:50;9.63;;;2.30;;
72791;SDS011;60907;53.268;8.764;2022-12-24T15:36:25;9.25;;;2.17;;
72791;SDS011;60907;53.268;8.764;2022-12-24T15:38:59;15.85;;;2.13;;
72791;SDS011;60907;53.268;8.764;2022-12-24T15:41:29;7.90;;;1.80;;
72791;SDS011;60907;53.268;8.764;2022-12-24T15:44:02;10.68;;;1.35;;
72791;SDS011;60907;53.268;8.764;2022-12-24T15:46:28;9.77;;;1.33;;
72791;SDS011;60907;53.268;8.764;2022-12-24T15:48:55;10.98;;;1.80;;
72791;SDS011;60907;53.268;8.764;2022-12-24T15:51:29;8.10;;;1.38;;
72791;SDS011;60907;53.268;8.764;2022-12-24T15:54:00;17.05;;;2.17;;
72791;SDS011;60907;53.268;8.764;2022-12-24T16:01:52;12.60;;;2.40;;
72791;SDS011;60907;53.268;8.764;2022-12-24T16:04:22;9.35;;;1.52;;
72791;SDS011;60907;53.268;8.764;2022-12-24T16:06:56;8.25;;;2.35;;
72791;SDS011;60907;53.268;8.764;2022-12-24T16:09:29;13.38;;;1.98;;
72791;SDS011;60907;53.268;8.764;2022-12-24T16:11:56;16.83;;;2.45;;
72791;SDS011;60907;53.268;8.764;2022-12-24T16:14:22;11.88;;;1.83;;
72791;SDS011;60907;53.268;8.764;2022-12-24T16:16:48;8.98;;;1.73;;
72791;SDS011;60907;53.268;8.764;2022-12-24T16:19:29;12.60;;;2.47;;
72791;SDS011;60907;53.268;8.764;2022-12-24T16:21:56;9.65;;;1.88;;
72791;SDS011;60907;53.268;8.764;2022-12-24T16:24:24;12.02;;;1.75;;
72791;SDS011;60907;53.268;8.764;2022-12-24T16:26:51;6.30;;;1.52;;
72791;SDS011;60907;53.268;8.764;2022-12-24T16:29:17;14.95;;;2.13;;
72791;SDS011;60907;53.268;8.764;2022-12-24T16:34:11;13.02;;;1.58;;
72791;SDS011;60907;53.268;8.764;2022-12-24T16:36:41;10.63;;;1.80;;
72791;SDS011;60907;53.268;8.764;2022-12-24T16:39:17;11.18;;;2.45;;
72791;SDS011;60907;53.268;8.764;2022-12-24T16:41:54;13.00;;;2.38;;
72791;SDS011;60907;53.268;8.764;2022-12-24T16:44:39;15.13;;;2.42;;
72791;SDS011;60907;53.268;8.764;2022-12-24T16:47:08;13.35;;;2.40;;
72791;SDS011;60907;53.268;8.764;2022-12-24T16:49:55;10.90;;;2.10;;
72791;SDS011;60907;53.268;8.764;2022-12-24T16:52:22;9.40;;;2.17;;
72791;SDS011;60907;53.268;8.764;2022-12-24T16:54:50;15.15;;;2.42;;
72791;SDS011;60907;53.268;8.764;2022-12-24T16:57:16;10.70;;;2.45;;
72791;SDS011;60907;53.268;8.764;2022-12-24T16:59:42;18.40;;;2.55;;
72791;SDS011;60907;53.268;8.764;2022-12-24T17:02:12;15.88;;;2.10;;
72791;SDS011;60907;53.268;8.764;2022-12-24T17:04:38;11.38;;;1.98;;
72791;SDS011;60907;53.268;8.764;2022-12-24T17:07:04;14.27;;;1.98;;
72791;SDS011;60907;53.268;8.764;2022-12-24T17:09:29;11.57;;;1.65;;
72791;SDS011;60907;53.268;8.764;2022-12-24T17:11:54;10.82;;;1.63;;
72791;SDS011;60907;53.268;8.764;2022-12-24T17:14:20;11.23;;;2.03;;
72791;SDS011;60907;53.268;8.764;2022-12-24T17:16:45;11.17;;;2.57;;
72791;SDS011;60907;53.268;8.764;2022-12-24T17:19:11;9.35;;;2.30;;
72791;SDS011;60907;53.268;8.764;2022-12-24T17:21:36;13.27;;;2.70;;